Time;durP1;ratioP1;P1;durP2;ratioP2;P2;SDS_P1;SDS_P2;PMS_P1;PMS_P2;Temp;Humidity;BMP_temperature;BMP_pressure;BME280_temperature;BME280_humidity;BME280_pressure;Samples;Min_cycle;Max_cycle;Signal;HPM_P1;HPM_P2
2022/06/12 00:03:58;;;;;;;1.52;0.80;;;;;;;17.69;100.00;98859.06;15283552;19;20037;-46
2022/06/12 00:09:03;;;;;;;3.05;1.05;;;;;;;17.70;100.00;98862.59;15286075;19;20035;-47
2022/06/12 00:14:11;;;;;;;2.33;0.90;;;;;;;17.72;100.00;98857.81;15284849;19;20751;-52
2022/06/12 00:19:18;;;;;;;2.22;1.00;;;;;;;17.74;100.00;98854.91;15286269;19;20767;-46
2022/06/12 00:24:23;;;;;;;2.40;0.90;;;;;;;17.74;100.00;98854.91;15279461;19;20014;-50
2022/06/12 00:29:31;;;;;;;3.13;0.85;;;;;;;17.73;100.00;98854.06;15287333;19;20035;-51
2022/06/12 00:34:42;;;;;;;2.75;1.00;;;;;;;17.71;100.00;98856.97;15280936;19;20365;-47
2022/06/12 00:39:49;;;;;;;2.47;0.95;;;;;;;17.65;100.00;98849.59;15285481;19;20449;-45
2022/06/12 00:44:56;;;;;;;1.65;0.80;;;;;;;17.73;100.00;98848.59;15286340;19;20041;-46
2022/06/12 00:50:20;;;;;;;2.53;1.15;;;;;;;17.64;100.00;98839.72;15284587;19;20032;-50
2022/06/12 00:55:37;;;;;;;1.92;0.90;;;;;;;17.69;100.00;98836.44;15280234;19;20011;-48
2022/06/12 01:00:43;;;;;;;2.65;1.08;;;;;;;17.71;100.00;98834.31;15297691;19;20471;-51
2022/06/12 01:11:15;;;;;;;4.65;1.00;;;;;;;17.70;100.00;98810.84;15295987;19;20014;-49
2022/06/12 01:16:22;;;;;;;2.42;0.90;;;;;;;17.72;100.00;98825.13;15299321;19;20022;-55
2022/06/12 01:21:57;;;;;;;2.83;0.90;;;;;;;17.74;100.00;98817.59;15296648;19;20014;-46
2022/06/12 01:27:22;;;;;;;4.25;1.10;;;;;;;17.79;100.00;98804.22;15296939;19;20018;-49
2022/06/12 01:32:36;;;;;;;3.22;1.10;;;;;;;17.80;100.00;98805.06;15294515;19;20481;-51
2022/06/12 01:37:50;;;;;;;1.95;0.88;;;;;;;17.82;100.00;98798.34;15296496;19;20349;-49
2022/06/12 01:43:05;;;;;;;1.98;1.00;;;;;;;17.76;100.00;98795.59;15290002;19;20042;-55
2022/06/12 01:48:22;;;;;;;1.55;0.80;;;;;;;17.68;100.00;98796.59;15297057;19;20407;-48
2022/06/12 01:53:34;;;;;;;1.98;0.93;;;;;;;17.61;100.00;98795.69;15291615;19;20395;-48
2022/06/12 01:58:45;;;;;;;2.13;0.98;;;;;;;17.51;100.00;98796.88;15298130;19;20122;-49
2022/06/12 02:03:58;;;;;;;1.95;1.05;;;;;;;17.47;100.00;98809.19;15289559;19;20022;-48
2022/06/12 02:09:09;;;;;;;2.50;1.05;;;;;;;17.59;100.00;98803.22;15294053;19;20018;-54
2022/06/12 02:14:18;;;;;;;2.00;0.93;;;;;;;17.62;100.00;98792.78;15289041;19;20015;-49
2022/06/12 02:19:32;;;;;;;2.55;1.02;;;;;;;17.69;100.00;98788.22;15295138;19;20018;-55
2022/06/12 02:24:42;;;;;;;2.63;0.90;;;;;;;17.74;100.00;98784.88;15287604;19;20010;-46
2022/06/12 02:29:52;;;;;;;1.83;0.90;;;;;;;17.79;100.00;98782.41;15293850;19;20021;-46
2022/06/12 02:35:04;;;;;;;2.40;1.10;;;;;;;17.84;100.00;98773.66;15290373;19;20486;-48
2022/06/12 02:40:18;;;;;;;2.80;0.90;;;;;;;17.84;100.00;98777.19;15293611;19;20022;-52
2022/06/12 02:45:28;;;;;;;2.45;1.00;;;;;;;17.82;100.00;98765.66;15293057;19;20827;-54
2022/06/12 02:50:43;;;;;;;1.55;0.88;;;;;;;17.77;100.00;98761.84;15291386;19;20018;-52
2022/06/12 02:55:56;;;;;;;2.30;1.17;;;;;;;17.70;100.00;98764.50;15292148;19;20014;-50
2022/06/12 03:01:05;;;;;;;2.53;1.00;;;;;;;17.69;100.00;98760.13;15291897;19;20041;-47
2022/06/12 03:06:14;;;;;;;2.17;1.10;;;;;;;17.67;100.00;98767.66;15290977;19;20035;-47
2022/06/12 03:11:22;;;;;;;2.15;1.00;;;;;;;17.66;100.00;98768.69;15290351;19;20024;-46
2022/06/12 03:16:29;;;;;;;2.70;1.00;;;;;;;17.61;100.00;98772.03;15289062;19;20043;-49
2022/06/12 03:21:43;;;;;;;2.35;1.00;;;;;;;17.59;100.00;98768.66;15290880;19;20507;-56
2022/06/12 03:27:13;;;;;;;2.40;0.98;;;;;;;17.62;100.00;98770.13;15291580;19;20010;-50
2022/06/12 03:32:27;;;;;;;3.28;0.95;;;;;;;17.61;100.00;98774.75;15288344;19;20027;-50
2022/06/12 03:37:45;;;;;;;2.83;1.10;;;;;;;17.63;100.00;98775.41;15288409;19;20014;-55
2022/06/12 03:42:56;;;;;;;2.08;0.90;;;;;;;17.61;100.00;98773.88;15287659;19;20030;-47
2022/06/12 03:48:11;;;;;;;2.15;0.98;;;;;;;17.56;100.00;98778.06;15288931;19;20014;-50
2022/06/12 03:53:26;;;;;;;3.22;1.10;;;;;;;17.54;100.00;98769.25;15284330;19;20085;-47
2022/06/12 03:58:36;;;;;;;3.70;1.40;;;;;;;17.50;100.00;98776.13;15290378;19;20017;-52
2022/06/12 04:03:45;;;;;;;1.92;1.00;;;;;;;17.49;100.00;98777.16;15283808;19;20026;-47
2022/06/12 04:08:56;;;;;;;2.97;1.10;;;;;;;17.47;100.00;98773.78;15286099;19;20041;-49
2022/06/12 04:14:03;;;;;;;2.67;1.20;;;;;;;17.42;100.00;98787.16;15284964;19;20025;-50
2022/06/12 04:19:15;;;;;;;2.55;1.13;;;;;;;17.35;100.00;98786.25;15286645;19;20014;-52
2022/06/12 04:24:28;;;;;;;2.58;1.00;;;;;;;17.36;100.00;98788.78;15284586;19;20021;-51
2022/06/12 04:29:36;;;;;;;1.85;1.00;;;;;;;17.42;100.00;98779.00;15286906;19;20019;-47
2022/06/12 04:34:43;;;;;;;1.73;1.10;;;;;;;17.46;100.00;98772.13;15294130;19;20018;-46
2022/06/12 04:39:53;;;;;;;2.15;1.17;;;;;;;17.56;100.00;98780.78;15300136;19;20013;-46
2022/06/12 04:45:00;;;;;;;3.13;1.08;;;;;;;17.65;100.00;98778.75;15294641;19;20349;-46
2022/06/12 04:50:06;;;;;;;2.20;1.20;;;;;;;17.74;100.00;98784.88;15298819;19;20158;-51
2022/06/12 04:55:14;;;;;;;2.45;1.08;;;;;;;17.84;100.00;98788.09;15298583;19;20022;-46
2022/06/12 05:00:21;;;;;;;3.08;1.10;;;;;;;17.91;100.00;98790.88;15300570;19;20014;-46
2022/06/12 05:05:26;;;;;;;2.35;1.20;;;;;;;18.00;100.00;98792.41;15294615;19;20018;-49
2022/06/12 05:10:34;;;;;;;2.05;1.33;;;;;;;18.12;100.00;98802.75;15296460;19;20735;-47
2022/06/12 05:15:40;;;;;;;1.90;1.10;;;;;;;18.22;100.00;98799.69;15297123;19;20034;-46
2022/06/12 05:20:45;;;;;;;2.72;1.33;;;;;;;18.32;100.00;98797.41;15297174;19;20017;-46
2022/06/12 05:25:58;;;;;;;2.15;1.27;;;;;;;18.44;100.00;98795.78;15291343;19;20031;-48
2022/06/12 05:31:04;;;;;;;3.92;1.40;;;;;;;18.55;100.00;98783.47;15295514;19;20360;-52
2022/06/12 05:36:10;;;;;;;2.65;1.27;;;;;;;18.66;100.00;98792.94;15297031;19;20085;-46
2022/06/12 05:41:19;;;;;;;5.10;1.35;;;;;;;18.78;100.00;98785.84;15291608;19;20381;-46
2022/06/12 05:46:24;;;;;;;1.55;1.10;;;;;;;18.88;100.00;98790.91;15294222;19;20014;-47
2022/06/12 05:51:30;;;;;;;3.38;1.00;;;;;;;18.96;100.00;98787.19;15292783;19;20094;-58
2022/06/12 05:56:37;;;;;;;1.92;1.00;;;;;;;19.06;100.00;98781.31;15289299;19;20022;-48
2022/06/12 06:01:44;;;;;;;3.22;0.95;;;;;;;19.19;100.00;98786.78;15280239;19;20018;-47
2022/06/12 06:06:54;;;;;;;1.80;0.80;;;;;;;19.39;100.00;98788.72;15288256;19;20605;-52
2022/06/12 06:12:03;;;;;;;1.60;0.95;;;;;;;19.50;100.00;98800.88;15282025;19;20044;-52
2022/06/12 06:17:09;;;;;;;1.42;0.85;;;;;;;19.62;100.00;98795.66;15285974;19;20130;-53
2022/06/12 06:22:17;;;;;;;1.75;0.90;;;;;;;19.73;100.00;98794.16;15286043;19;20021;-48
2022/06/12 06:27:25;;;;;;;1.30;0.70;;;;;;;19.88;100.00;98800.25;15290040;19;20034;-48
2022/06/12 06:32:32;;;;;;;2.45;0.80;;;;;;;20.06;100.00;98798.75;15279206;19;20427;-54
2022/06/12 06:37:37;;;;;;;3.78;0.90;;;;;;;20.22;100.00;98800.22;15287509;19;20369;-49
2022/06/12 06:42:45;;;;;;;1.98;0.80;;;;;;;20.30;100.00;98798.06;15283613;19;20010;-49
2022/06/12 06:47:50;;;;;;;2.13;0.90;;;;;;;20.42;100.00;98789.16;15284630;19;20014;-51
2022/06/12 06:52:55;;;;;;;1.63;0.80;;;;;;;20.56;100.00;98796.28;15273322;19;20423;-49
2022/06/12 06:58:03;;;;;;;1.67;0.93;;;;;;;20.53;100.00;98791.22;15284765;19;20388;-56
2022/06/12 07:03:10;;;;;;;1.38;0.90;;;;;;;20.60;100.00;98792.06;15276375;19;20034;-54
2022/06/12 07:08:16;;;;;;;3.40;0.98;;;;;;;20.75;100.00;98796.44;15283580;19;20022;-54
2022/06/12 07:13:24;;;;;;;2.63;1.00;;;;;;;20.81;100.00;98803.78;15282722;19;20041;-55
2022/06/12 07:18:29;;;;;;;2.38;0.98;;;;;;;20.86;100.00;98806.72;15284761;19;20422;-54
2022/06/12 07:23:35;;;;;;;1.10;0.65;;;;;;;20.99;100.00;98811.25;15276015;19;20478;-53
2022/06/12 07:28:42;;;;;;;2.95;0.85;;;;;;;21.02;100.00;98815.44;15284162;19;20018;-53
2022/06/12 07:33:48;;;;;;;2.53;0.90;;;;;;;21.20;100.00;98812.81;15277167;19;20024;-55
2022/06/12 07:38:57;;;;;;;1.80;1.02;;;;;;;21.14;100.00;98812.88;15284458;19;20022;-54
2022/06/12 07:44:30;;;;;;;1.58;0.70;;;;;;;21.15;100.00;98809.06;15279991;19;20025;-55
2022/06/12 07:49:35;;;;;;;1.77;0.90;;;;;;;21.30;100.00;98811.50;15282662;19;20031;-54
2022/06/12 07:54:40;;;;;;;1.13;0.90;;;;;;;21.38;100.00;98811.22;15275374;19;20014;-53
2022/06/12 07:59:48;;;;;;;1.73;1.00;;;;;;;21.30;100.00;98812.31;15285086;19;20014;-53
2022/06/12 08:04:54;;;;;;;2.10;0.90;;;;;;;21.50;100.00;98809.44;15277716;19;20407;-53
2022/06/12 08:09:59;;;;;;;1.00;0.77;;;;;;;21.70;100.00;98817.53;15277477;19;20018;-53
2022/06/12 08:15:11;;;;;;;1.83;0.75;;;;;;;21.76;100.00;98834.13;15277567;19;20025;-53
2022/06/12 08:20:28;;;;;;;1.50;0.80;;;;;;;21.80;100.00;98832.63;15275922;19;20034;-55
2022/06/12 08:25:38;;;;;;;1.90;0.70;;;;;;;21.85;100.00;98827.31;15266382;19;20015;-56
2022/06/12 08:30:47;;;;;;;4.78;0.80;;;;;;;21.92;100.00;98830.00;15266287;19;20018;-58
2022/06/12 08:35:54;;;;;;;1.58;0.75;;;;;;;22.02;100.00;98830.31;15272860;19;20010;-58
2022/06/12 08:41:07;;;;;;;1.52;0.80;;;;;;;22.05;100.00;98815.31;15267694;19;20033;-55
2022/06/12 08:46:24;;;;;;;1.65;0.80;;;;;;;22.12;100.00;98827.03;15268715;19;20021;-57
2022/06/12 08:51:39;;;;;;;1.75;0.90;;;;;;;22.17;100.00;98819.81;15271870;19;20486;-55
2022/06/12 08:56:53;;;;;;;1.75;0.80;;;;;;;22.30;100.00;98809.75;15270990;19;20026;-57
2022/06/12 09:02:03;;;;;;;1.25;0.70;;;;;;;22.51;100.00;98810.41;15263004;19;20006;-53
2022/06/12 09:07:16;;;;;;;1.67;0.73;;;;;;;22.59;100.00;98810.91;15269344;19;20041;-53
2022/06/12 09:12:26;;;;;;;1.75;0.80;;;;;;;22.68;100.00;98805.13;15263656;19;20019;-48
2022/06/12 09:17:43;;;;;;;1.30;0.67;;;;;;;22.77;100.00;98800.97;15276965;19;20002;-50
2022/06/12 09:22:58;;;;;;;1.67;0.80;;;;;;;22.94;100.00;98798.44;15280198;19;20586;-51
2022/06/12 09:28:10;;;;;;;1.60;0.90;;;;;;;23.15;100.00;98804.47;15282264;19;20015;-53
2022/06/12 09:33:28;;;;;;;3.88;0.98;;;;;;;23.15;100.00;98804.47;15272153;19;20041;-60
2022/06/12 09:38:44;;;;;;;1.27;0.75;;;;;;;23.17;100.00;98791.31;15284156;19;20399;-54
2022/06/12 09:44:09;;;;;;;1.70;0.90;;;;;;;23.26;100.00;98780.88;15276031;19;20018;-53
2022/06/12 09:49:37;;;;;;;2.00;0.77;;;;;;;23.53;96.37;98797.78;15285224;19;20038;-53
2022/06/12 09:54:51;;;;;;;3.25;0.88;;;;;;;23.61;99.61;98794.66;15278675;19;20017;-50
2022/06/12 10:00:04;;;;;;;2.45;0.90;;;;;;;23.43;97.82;98792.03;15284194;19;20035;-57
2022/06/12 10:05:29;;;;;;;1.23;0.73;;;;;;;23.58;100.00;98780.56;15275150;19;20296;-57
2022/06/12 10:10:40;;;;;;;2.15;0.95;;;;;;;23.82;97.93;98776.75;15279859;19;20003;-53
2022/06/12 10:15:51;;;;;;;2.03;0.98;;;;;;;23.90;92.46;98767.28;15277573;19;20014;-49
2022/06/12 10:21:05;;;;;;;2.50;0.90;;;;;;;23.95;80.03;98761.91;15282589;19;20026;-49
2022/06/12 10:26:20;;;;;;;2.08;0.88;;;;;;;24.14;85.35;98765.38;15279833;19;20602;-56
2022/06/12 10:31:25;;;;;;;1.77;0.80;;;;;;;24.24;81.04;98755.66;15274786;19;20549;-49
2022/06/12 10:36:35;;;;;;;2.97;0.82;;;;;;;24.45;84.36;98754.16;15273143;19;20658;-49
2022/06/12 10:41:52;;;;;;;1.65;0.90;;;;;;;24.29;79.16;98747.50;15276664;19;20019;-52
2022/06/12 10:47:09;;;;;;;1.85;0.90;;;;;;;24.38;77.58;98740.53;15279047;19;20860;-60
2022/06/12 10:52:21;;;;;;;1.00;0.60;;;;;;;24.52;76.82;98735.56;15274823;19;20019;-50
2022/06/12 10:57:42;;;;;;;3.10;0.90;;;;;;;24.48;72.63;98734.41;15281061;19;20023;-53
2022/06/12 11:03:03;;;;;;;1.40;0.63;;;;;;;24.42;69.35;98729.88;15275847;19;20373;-56
2022/06/12 11:08:22;;;;;;;2.15;0.70;;;;;;;24.54;68.44;98725.16;15270287;19;20592;-58
2022/06/12 11:13:53;;;;;;;1.33;0.75;;;;;;;24.76;64.97;98719.84;15276725;19;20010;-51
2022/06/12 11:19:11;;;;;;;1.58;0.68;;;;;;;24.84;65.88;98710.34;15278893;19;20019;-56
2022/06/12 11:24:22;;;;;;;1.45;0.80;;;;;;;24.92;63.50;98693.38;15267666;19;20398;-52
2022/06/12 11:29:51;;;;;;;0.88;0.60;;;;;;;24.87;61.74;98689.69;15276893;19;20010;-55
2022/06/12 11:35:11;;;;;;;2.60;0.80;;;;;;;25.08;59.67;98688.16;15277334;19;20014;-54
2022/06/12 11:40:27;;;;;;;4.72;0.77;;;;;;;25.17;60.69;98675.59;15265792;19;20061;-55
2022/06/12 11:45:42;;;;;;;2.03;0.63;;;;;;;25.28;59.79;98670.25;15271013;19;20014;-50
2022/06/12 11:50:53;;;;;;;1.77;0.52;;;;;;;25.49;58.35;98666.75;15273879;19;20018;-51
2022/06/12 11:56:06;;;;;;;1.25;0.65;;;;;;;25.57;57.12;98667.41;15267926;19;20357;-54
2022/06/12 12:01:20;;;;;;;2.67;0.60;;;;;;;25.72;55.30;98645.53;15274885;19;20014;-53
2022/06/12 12:06:53;;;;;;;1.60;0.60;;;;;;;25.93;55.56;98649.41;15271428;19;20034;-52
2022/06/12 12:12:04;;;;;;;1.27;0.60;;;;;;;25.96;54.65;98643.38;15260645;19;20038;-57
2022/06/12 12:17:24;;;;;;;1.67;0.50;;;;;;;26.13;54.29;98643.34;15274792;19;20090;-62
2022/06/12 12:22:39;;;;;;;2.00;0.80;;;;;;;26.42;53.88;98640.31;15268357;19;20094;-57
2022/06/12 12:27:50;;;;;;;1.70;0.60;;;;;;;26.26;51.33;98627.47;15268800;19;20003;-51
2022/06/12 12:32:57;;;;;;;;;;;;;;;26.61;50.29;98632.50;15272214;19;20010;-52
2022/06/12 12:43:25;;;;;;;1.38;0.70;;;;;;;26.48;50.21;98615.53;15270861;19;20014;-57
2022/06/12 12:48:42;;;;;;;1.77;0.80;;;;;;;26.10;50.27;98616.22;15269668;19;20010;-60
2022/06/12 12:53:47;;;;;;;1.60;0.60;;;;;;;26.59;49.93;98603.47;15278290;19;20019;-58
2022/06/12 12:59:02;;;;;;;1.33;0.60;;;;;;;26.71;48.53;98604.13;15284176;19;20018;-57
2022/06/12 13:04:16;;;;;;;2.75;0.57;;;;;;;26.92;49.21;98613.47;15279703;19;20356;-57
2022/06/12 13:09:50;;;;;;;1.92;0.73;;;;;;;26.83;48.49;98612.28;15285346;19;20420;-61
2022/06/12 13:15:22;;;;;;;4.30;0.60;;;;;;;27.18;49.69;98601.75;15285610;19;20453;-51
2022/06/12 13:20:59;;;;;;;0.85;0.50;;;;;;;26.98;48.03;98585.84;15278684;19;20011;-55
2022/06/12 13:26:08;;;;;;;0.80;0.55;;;;;;;27.46;47.61;98577.63;15282577;19;20019;-53
2022/06/12 13:31:22;;;;;;;1.42;0.63;;;;;;;27.66;49.18;98563.88;15280253;19;20031;-55
2022/06/12 13:36:34;;;;;;;1.55;0.60;;;;;;;27.96;47.20;98561.50;15286497;19;20011;-50
2022/06/12 13:41:43;;;;;;;2.47;0.70;;;;;;;27.93;46.91;98567.56;15284114;19;20018;-54
2022/06/12 13:46:51;;;;;;;2.50;0.73;;;;;;;27.48;47.91;98564.31;15282714;19;20112;-58
2022/06/12 13:52:02;;;;;;;1.17;0.60;;;;;;;27.95;47.52;98555.09;15275880;19;20010;-54
2022/06/12 13:57:14;;;;;;;1.00;0.60;;;;;;;27.76;45.97;98549.22;15283664;19;20039;-56
2022/06/12 14:02:26;;;;;;;1.77;0.68;;;;;;;27.42;46.19;98543.25;15272344;19;20015;-58
2022/06/12 14:07:34;;;;;;;1.17;0.60;;;;;;;27.68;46.11;98536.78;15280679;19;20361;-57
2022/06/12 14:12:39;;;;;;;1.60;0.70;;;;;;;27.76;45.65;98534.56;15279076;19;20701;-56
2022/06/12 14:17:55;;;;;;;1.48;0.50;;;;;;;28.17;44.86;98536.63;15283455;19;20243;-57
2022/06/12 14:23:03;;;;;;;4.43;0.70;;;;;;;28.24;45.24;98513.09;15272539;19;20019;-53
2022/06/12 14:28:29;;;;;;;0.93;0.45;;;;;;;28.28;45.87;98508.66;15279864;19;20011;-57
2022/06/12 14:33:40;;;;;;;1.10;0.60;;;;;;;28.26;44.23;98515.59;15275318;19;20019;-56
2022/06/12 14:38:45;;;;;;;0.90;0.50;;;;;;;28.28;45.04;98514.19;15281688;19;20039;-58
2022/06/12 14:43:52;;;;;;;2.22;0.50;;;;;;;27.77;45.35;98514.09;15276274;19;20801;-56
2022/06/12 14:49:03;;;;;;;0.90;0.60;;;;;;;27.84;45.51;98506.34;15247536;19;20022;-56
2022/06/12 14:54:15;;;;;;;1.40;0.57;;;;;;;27.48;46.30;98509.84;15271375;19;20480;-59
2022/06/12 14:59:23;;;;;;;1.00;0.47;;;;;;;27.55;46.33;98505.97;15279429;19;20428;-52
2022/06/12 15:04:32;;;;;;;0.65;0.50;;;;;;;27.58;45.35;98499.91;15277522;19;20348;-59
2022/06/12 15:09:38;;;;;;;2.13;0.70;;;;;;;27.02;46.57;98498.53;15271997;19;20351;-57
2022/06/12 15:14:43;;;;;;;1.67;0.73;;;;;;;27.57;45.90;98499.09;15267533;19;20022;-58
2022/06/12 15:19:52;;;;;;;2.38;0.73;;;;;;;27.67;44.84;98506.56;15277198;19;20022;-58
2022/06/12 15:24:58;;;;;;;1.05;0.45;;;;;;;27.75;44.72;98496.91;15275070;19;20078;-56
2022/06/12 15:30:03;;;;;;;1.13;0.50;;;;;;;27.86;44.97;98479.22;15274976;19;20029;-59
2022/06/12 15:35:18;;;;;;;3.65;0.68;;;;;;;27.87;43.83;98489.19;15277820;19;20018;-59
2022/06/12 15:40:23;;;;;;;2.42;0.60;;;;;;;27.64;43.67;98483.03;15271897;19;20007;-55
2022/06/12 15:45:28;;;;;;;3.40;0.55;;;;;;;27.88;44.30;98481.72;15276386;19;20022;-53
2022/06/12 15:50:36;;;;;;;1.75;0.60;;;;;;;27.82;44.23;98483.63;15276693;19;20105;-59
2022/06/12 15:55:41;;;;;;;2.10;0.70;;;;;;;27.19;44.88;98465.97;15276265;19;20031;-60
2022/06/12 16:00:48;;;;;;;1.60;0.80;;;;;;;26.84;45.43;98474.91;15271438;19;20010;-60
2022/06/12 16:05:55;;;;;;;1.27;0.60;;;;;;;27.14;45.86;98468.72;15275017;19;20683;-59
2022/06/12 16:11:00;;;;;;;0.80;0.60;;;;;;;27.17;45.78;98456.28;15271243;19;20014;-58
2022/06/12 16:16:06;;;;;;;0.95;0.60;;;;;;;26.88;46.40;98457.53;15276033;19;20019;-56
2022/06/12 16:21:14;;;;;;;2.15;0.57;;;;;;;26.90;46.81;98446.19;15274776;19;20014;-60
2022/06/12 16:26:19;;;;;;;1.65;0.60;;;;;;;26.71;46.03;98449.38;15275065;19;20314;-64
2022/06/12 16:31:25;;;;;;;0.60;0.40;;;;;;;27.36;46.26;98440.03;15282646;19;20031;-63
2022/06/12 16:36:36;;;;;;;1.33;0.60;;;;;;;27.71;46.10;98429.34;15293775;19;20423;-59
2022/06/12 16:41:49;;;;;;;1.05;0.60;;;;;;;27.74;44.68;98437.13;15294762;19;20014;-58
2022/06/12 16:46:58;;;;;;;1.38;0.65;;;;;;;27.78;44.51;98432.72;15282763;19;20022;-60
2022/06/12 16:52:12;;;;;;;1.02;0.50;;;;;;;27.51;43.55;98428.22;15284818;19;20022;-64
2022/06/12 16:57:20;;;;;;;2.22;0.50;;;;;;;28.07;44.13;98423.88;15289931;19;20021;-60
2022/06/12 17:02:28;;;;;;;2.45;0.80;;;;;;;27.92;42.64;98427.47;15280093;19;20420;-63
2022/06/12 17:07:38;;;;;;;0.98;0.60;;;;;;;28.09;42.19;98432.75;15288545;19;20019;-63
2022/06/12 17:12:45;;;;;;;2.78;0.70;;;;;;;27.95;42.80;98433.28;15288306;19;20026;-61
2022/06/12 17:23:11;;;;;;;2.10;0.60;;;;;;;28.03;40.89;98426.34;15280654;19;20050;-62
2022/06/12 17:28:18;;;;;;;1.40;0.60;;;;;;;27.79;42.26;98428.84;15289721;19;21156;-61
2022/06/12 17:33:23;;;;;;;1.10;0.60;;;;;;;27.92;42.56;98431.06;15280852;19;20017;-61
2022/06/12 17:38:31;;;;;;;1.67;0.70;;;;;;;27.39;42.19;98431.22;15277786;19;20494;-56
2022/06/12 17:43:37;;;;;;;2.13;0.70;;;;;;;27.56;41.78;98419.94;15279815;19;20594;-60
2022/06/12 17:48:43;;;;;;;1.58;0.80;;;;;;;27.72;40.98;98422.72;15279440;19;20022;-61
2022/06/12 17:53:51;;;;;;;1.98;0.70;;;;;;;27.43;41.63;98420.44;15262796;19;20007;-63
2022/06/12 17:58:56;;;;;;;1.23;0.60;;;;;;;27.15;41.25;98419.75;14776050;19;10002544;-63
2022/06/12 18:04:02;;;;;;;2.75;0.75;;;;;;;26.79;42.30;98422.34;15287340;19;20014;-58
2022/06/12 18:09:13;;;;;;;0.93;0.52;;;;;;;27.02;42.63;98416.41;15277016;19;20014;-62
2022/06/12 18:14:18;;;;;;;0.77;0.45;;;;;;;26.70;42.53;98420.09;15241349;19;20467;-59
2022/06/12 18:19:27;;;;;;;0.88;0.50;;;;;;;26.40;42.57;98420.72;15284014;19;20025;-59
2022/06/12 18:24:34;;;;;;;1.02;0.60;;;;;;;26.56;42.61;98425.25;15279040;19;20621;-58
2022/06/12 18:29:40;;;;;;;4.43;0.70;;;;;;;26.39;43.28;98419.03;15278300;19;20031;-56
2022/06/12 18:34:45;;;;;;;1.20;0.52;;;;;;;26.35;43.51;98423.41;15277492;19;20010;-59
2022/06/12 18:39:53;;;;;;;2.08;0.60;;;;;;;26.08;43.21;98416.03;15276797;19;20514;-57
2022/06/12 18:44:58;;;;;;;1.70;0.60;;;;;;;25.71;43.99;98425.88;15283457;19;20018;-58
2022/06/12 18:50:03;;;;;;;1.27;0.73;;;;;;;25.32;44.10;98426.00;15276387;19;20019;-58
2022/06/12 18:55:12;;;;;;;1.25;0.60;;;;;;;25.07;45.04;98425.41;15273062;19;20022;-60
2022/06/12 19:00:21;;;;;;;1.33;0.60;;;;;;;24.85;45.76;98419.91;15219723;19;20374;-60
2022/06/12 19:05:27;;;;;;;0.80;0.50;;;;;;;24.84;45.87;98418.25;15277148;19;20132;-56
2022/06/12 19:10:34;;;;;;;0.95;0.60;;;;;;;24.59;46.06;98422.28;15273780;19;20374;-53
2022/06/12 19:15:39;;;;;;;1.15;0.57;;;;;;;24.54;46.24;98422.19;15279042;19;20479;-58
2022/06/12 19:20:45;;;;;;;1.58;0.70;;;;;;;24.40;47.10;98434.66;15278419;19;20014;-57
2022/06/12 19:25:52;;;;;;;1.42;0.50;;;;;;;24.25;47.41;98427.81;15274257;19;20019;-60
2022/06/12 19:31:00;;;;;;;1.52;0.60;;;;;;;24.10;47.68;98431.16;15275224;19;20361;-49
2022/06/12 19:36:06;;;;;;;1.52;0.70;;;;;;;23.89;47.92;98440.94;15280025;19;20018;-57
2022/06/12 19:41:14;;;;;;;1.50;0.60;;;;;;;23.75;47.80;98445.09;15277083;19;20010;-59
2022/06/12 19:46:39;;;;;;;1.27;0.70;;;;;;;23.48;48.00;98445.69;15272393;19;20385;-59
2022/06/12 19:51:44;;;;;;;1.23;0.52;;;;;;;22.94;48.21;98463.25;15276090;19;20488;-58
2022/06/12 19:56:53;;;;;;;2.95;1.00;;;;;;;22.31;51.14;98468.34;15272165;19;20006;-58
2022/06/12 20:01:59;;;;;;;2.85;1.00;;;;;;;22.17;52.60;98470.47;15275742;19;20014;-57
2022/06/12 20:12:27;;;;;;;5.30;1.00;;;;;;;21.49;54.49;98464.28;15274093;19;20017;-55
2022/06/12 20:17:33;;;;;;;3.40;1.20;;;;;;;21.23;55.45;98456.16;15270096;19;20031;-57
2022/06/12 20:22:43;;;;;;;3.88;1.02;;;;;;;20.97;56.68;98475.66;15271847;19;20515;-61
2022/06/12 20:27:50;;;;;;;3.55;1.20;;;;;;;20.66;58.21;98469.19;15276273;19;20015;-60
2022/06/12 20:32:56;;;;;;;3.42;1.25;;;;;;;20.45;59.05;98477.63;15265572;19;20014;-59
2022/06/12 20:38:00;;;;;;;2.22;1.10;;;;;;;20.21;60.48;98476.56;15277302;19;20018;-59
2022/06/12 20:43:08;;;;;;;5.82;1.30;;;;;;;20.05;61.95;98472.47;15271141;19;20511;-56
2022/06/12 20:48:14;;;;;;;3.97;1.40;;;;;;;19.89;62.38;98483.94;15267748;19;20012;-60
2022/06/12 20:53:19;;;;;;;2.63;1.05;;;;;;;19.80;62.64;98491.53;15270439;19;20035;-57
2022/06/12 20:58:27;;;;;;;3.70;1.15;;;;;;;19.86;62.25;98501.63;15273627;19;20866;-58
2022/06/12 21:03:32;;;;;;;2.95;1.10;;;;;;;19.74;64.53;98498.72;15265908;19;20021;-57
2022/06/12 21:08:37;;;;;;;3.58;1.15;;;;;;;19.68;65.43;98494.97;15269884;19;20425;-55
2022/06/12 21:13:46;;;;;;;2.53;1.10;;;;;;;19.65;65.94;98500.00;15274731;19;20011;-59
2022/06/12 21:18:51;;;;;;;3.50;1.13;;;;;;;19.53;66.82;98492.50;15287822;19;20085;-52
2022/06/12 21:23:56;;;;;;;2.35;0.85;;;;;;;19.47;66.59;98487.06;15275125;19;20042;-56
2022/06/12 21:29:04;;;;;;;2.28;1.02;;;;;;;19.36;66.92;98485.88;15283235;19;20010;-58
2022/06/12 21:34:09;;;;;;;2.80;1.10;;;;;;;19.25;66.42;98474.59;15277731;19;20019;-60
2022/06/12 21:39:15;;;;;;;2.80;1.10;;;;;;;19.13;67.37;98480.91;15287261;19;20011;-60
2022/06/12 21:44:23;;;;;;;1.92;0.90;;;;;;;19.05;66.96;98469.19;15284359;19;20015;-61
2022/06/12 21:49:29;;;;;;;2.28;1.10;;;;;;;19.03;66.66;98474.03;15283025;19;20015;-60
2022/06/12 21:54:34;;;;;;;2.10;1.00;;;;;;;18.98;68.61;98479.31;15276063;19;20022;-60
2022/06/12 21:59:45;;;;;;;2.97;1.10;;;;;;;18.86;70.72;98472.78;15284403;19;20035;-56
2022/06/12 22:04:50;;;;;;;2.78;1.00;;;;;;;18.69;79.49;98475.16;15282060;19;20022;-58
2022/06/12 22:09:54;;;;;;;3.58;1.02;;;;;;;18.54;83.24;98468.03;15277754;19;20467;-60
2022/06/12 22:15:02;;;;;;;4.00;1.15;;;;;;;18.37;82.97;98464.03;15285845;19;20491;-53
2022/06/12 22:20:09;;;;;;;2.38;1.10;;;;;;;18.26;83.45;98465.53;15283401;19;20014;-58
2022/06/12 22:25:15;;;;;;;3.30;1.10;;;;;;;17.99;87.06;98465.50;15275934;19;20034;-60
2022/06/12 22:30:23;;;;;;;2.33;0.90;;;;;;;17.76;90.21;98458.53;15280848;19;20029;-57
2022/06/12 22:35:28;;;;;;;2.50;0.95;;;;;;;17.43;95.41;98461.16;15282592;19;20010;-58
2022/06/12 22:40:33;;;;;;;2.53;1.17;;;;;;;17.36;95.42;98458.44;15278616;19;20769;-58
2022/06/12 22:45:40;;;;;;;2.22;1.00;;;;;;;17.25;100.00;98455.25;15284050;19;20018;-57
2022/06/12 22:50:46;;;;;;;2.05;0.85;;;;;;;17.16;100.00;98452.94;15278632;19;20027;-59
2022/06/12 22:55:51;;;;;;;2.42;0.93;;;;;;;17.20;100.00;98446.00;15284141;19;20014;-54
2022/06/12 23:00:59;;;;;;;4.38;1.05;;;;;;;17.19;100.00;98439.75;15275432;19;20064;-58
2022/06/12 23:06:04;;;;;;;2.47;0.90;;;;;;;17.17;100.00;98430.94;15282463;19;20018;-57
2022/06/12 23:11:10;;;;;;;3.15;1.10;;;;;;;17.15;100.00;98437.63;15273146;19;20027;-59
2022/06/12 23:16:17;;;;;;;3.42;0.98;;;;;;;17.12;100.00;98438.03;15281462;19;20018;-55
2022/06/12 23:21:29;;;;;;;2.80;0.90;;;;;;;17.10;100.00;98438.25;15024346;19;5001165;-53
2022/06/12 23:26:34;;;;;;;2.88;1.08;;;;;;;17.09;100.00;98431.94;15277975;19;20361;-58
2022/06/12 23:31:44;;;;;;;2.13;0.88;;;;;;;17.06;100.00;98426.06;15268372;19;20020;-54
2022/06/12 23:36:49;;;;;;;2.80;0.90;;;;;;;17.01;100.00;98423.97;15277905;19;20031;-54
2022/06/12 23:47:40;;;;;;;1.80;0.77;;;;;;;16.92;100.00;98417.81;15280904;19;20340;-58
2022/06/12 23:52:45;;;;;;;2.65;0.90;;;;;;;16.88;100.00;98421.16;15273826;19;20429;-55
2022/06/12 23:57:50;;;;;;;2.10;0.80;;;;;;;16.78;100.00;98416.06;15280845;19;20014;-54
